Time;durP1;ratioP1;P1;durP2;ratioP2;P2;SDS_P1;SDS_P2;PMS_P1;PMS_P2;Temp;Humidity;BMP_temperature;BMP_pressure;BME280_temperature;BME280_humidity;BME280_pressure;Samples;Min_cycle;Max_cycle;Signal;HPM_P1;HPM_P2
2023/09/24 00:01:05;;;;;;;2.70;1.98;;;8.40;99.90;;;;;;4981616;28;20039;-80
2023/09/24 00:03:32;;;;;;;3.22;1.90;;;8.40;99.90;;;;;;4963124;28;20034;-80
2023/09/24 00:06:03;;;;;;;2.03;1.85;;;8.30;99.90;;;;;;4973649;28;20053;-84
2023/09/24 00:08:29;;;;;;;4.13;1.70;;;8.30;99.90;;;;;;4970732;28;20023;-82
2023/09/24 00:10:56;;;;;;;3.75;2.03;;;8.30;99.90;;;;;;4973373;28;20470;-79
2023/09/24 00:13:22;;;;;;;2.53;2.10;;;8.30;99.90;;;;;;4984087;28;20432;-81
2023/09/24 00:15:52;;;;;;;5.40;2.28;;;8.30;99.90;;;;;;4963748;28;20034;-81
2023/09/24 00:18:19;;;;;;;2.28;1.63;;;8.20;99.90;;;;;;4975249;28;20026;-81
2023/09/24 00:20:46;;;;;;;1.98;1.42;;;8.30;99.90;;;;;;4951945;28;20530;-81
2023/09/24 00:23:11;;;;;;;3.78;1.80;;;8.20;99.90;;;;;;4977988;28;20523;-79
2023/09/24 00:25:38;;;;;;;1.98;1.60;;;8.20;99.90;;;;;;4974907;28;20026;-80
2023/09/24 00:28:04;;;;;;;3.25;1.60;;;8.20;99.90;;;;;;4973784;28;20133;-81
2023/09/24 00:30:33;;;;;;;2.00;1.80;;;8.20;99.90;;;;;;4955328;28;20031;-81
2023/09/24 00:32:59;;;;;;;4.13;1.60;;;8.20;99.90;;;;;;4958116;28;20552;-81
2023/09/24 00:35:25;;;;;;;3.08;1.65;;;8.10;99.90;;;;;;4956950;28;20038;-81
2023/09/24 00:37:51;;;;;;;2.58;2.00;;;8.10;99.90;;;;;;4978630;28;20507;-80
2023/09/24 00:40:18;;;;;;;5.93;2.05;;;8.00;99.90;;;;;;4973006;28;20440;-81
2023/09/24 00:42:44;;;;;;;1.90;1.58;;;8.00;99.90;;;;;;4962300;28;20088;-81
2023/09/24 00:45:12;;;;;;;1.73;1.52;;;8.00;99.90;;;;;;4972968;28;20499;-80
2023/09/24 00:47:42;;;;;;;3.65;2.10;;;8.00;99.90;;;;;;4979064;28;20094;-80
2023/09/24 00:50:10;;;;;;;2.30;1.50;;;8.00;99.90;;;;;;4957881;28;20083;-79
2023/09/24 00:52:36;;;;;;;4.05;1.80;;;8.00;99.90;;;;;;4982600;28;20046;-81
2023/09/24 00:55:06;;;;;;;4.63;1.77;;;8.00;99.90;;;;;;4978633;28;20038;-82
2023/09/24 00:57:33;;;;;;;4.07;1.52;;;8.00;99.90;;;;;;4974700;28;20039;-81
2023/09/24 01:00:07;;;;;;;1.90;1.70;;;8.00;99.90;;;;;;4960371;28;20091;-80
2023/09/24 01:02:34;;;;;;;1.70;1.60;;;8.00;99.90;;;;;;4969760;28;20068;-82
2023/09/24 01:05:01;;;;;;;3.30;1.85;;;8.00;99.90;;;;;;4975089;28;20599;-81
2023/09/24 01:07:28;;;;;;;1.88;1.63;;;8.00;99.90;;;;;;4952112;28;20027;-80
2023/09/24 01:09:54;;;;;;;1.40;1.30;;;7.90;99.90;;;;;;4952109;28;20023;-82
2023/09/24 01:12:26;;;;;;;1.98;1.48;;;7.90;99.90;;;;;;4954620;28;20039;-83
2023/09/24 01:14:57;;;;;;;3.08;1.40;;;7.90;99.90;;;;;;4974741;28;20109;-83
2023/09/24 01:17:26;;;;;;;2.00;1.73;;;7.90;99.90;;;;;;4978688;28;20061;-83
2023/09/24 01:19:54;;;;;;;2.15;1.33;;;7.80;99.90;;;;;;4935946;28;20548;-83
2023/09/24 01:22:20;;;;;;;2.00;1.65;;;7.80;99.90;;;;;;4960654;28;20054;-83
2023/09/24 01:24:46;;;;;;;2.40;1.70;;;7.80;99.90;;;;;;4967924;28;20373;-82
2023/09/24 01:27:12;;;;;;;2.03;1.70;;;7.70;99.90;;;;;;4941763;28;20042;-83
2023/09/24 01:29:38;;;;;;;4.38;2.03;;;7.70;99.90;;;;;;4979975;28;20113;-84
2023/09/24 01:32:08;;;;;;;3.40;1.65;;;7.70;99.90;;;;;;4957389;28;20105;-83
2023/09/24 01:34:36;;;;;;;2.10;1.58;;;7.70;99.90;;;;;;4949964;28;20038;-83
2023/09/24 01:37:08;;;;;;;3.17;1.48;;;7.60;99.90;;;;;;4962514;28;20030;-83
2023/09/24 01:39:36;;;;;;;2.38;1.75;;;7.60;99.90;;;;;;4975938;28;20810;-82
2023/09/24 01:42:02;;;;;;;2.13;1.63;;;7.60;99.90;;;;;;4961621;28;20062;-81
2023/09/24 01:44:32;;;;;;;2.90;1.50;;;7.60;99.90;;;;;;4982486;28;20031;-83
2023/09/24 01:46:58;;;;;;;2.47;1.27;;;7.60;99.90;;;;;;4964569;28;20089;-82
2023/09/24 01:49:25;;;;;;;1.98;1.45;;;7.60;99.90;;;;;;4948111;28;20034;-81
2023/09/24 01:51:51;;;;;;;2.30;1.40;;;7.60;99.90;;;;;;4978422;28;20037;-82
2023/09/24 01:54:16;;;;;;;2.05;1.83;;;7.60;99.90;;;;;;4951656;28;20038;-83
2023/09/24 01:56:42;;;;;;;1.70;1.30;;;7.60;99.90;;;;;;4966054;28;20058;-82
2023/09/24 01:59:08;;;;;;;1.30;1.20;;;7.60;99.90;;;;;;4938220;28;20028;-82
2023/09/24 02:01:35;;;;;;;1.65;1.40;;;7.50;99.90;;;;;;4963019;28;20034;-82
2023/09/24 02:04:02;;;;;;;2.17;1.50;;;7.50;99.90;;;;;;4959672;28;20025;-82
2023/09/24 02:06:28;;;;;;;3.83;1.65;;;7.40;99.90;;;;;;4958904;28;20391;-81
2023/09/24 02:08:53;;;;;;;3.90;1.70;;;7.40;99.90;;;;;;4939505;28;20026;-82
2023/09/24 02:11:20;;;;;;;4.30;1.17;;;7.40;99.90;;;;;;4954685;28;20034;-84
2023/09/24 02:13:46;;;;;;;2.65;1.50;;;7.30;99.90;;;;;;4939074;28;20042;-82
2023/09/24 02:16:12;;;;;;;2.90;1.60;;;7.30;99.90;;;;;;4981784;28;20121;-82
2023/09/24 02:18:39;;;;;;;1.70;1.60;;;7.40;99.90;;;;;;4957804;28;20121;-81
2023/09/24 02:21:15;;;;;;;1.52;1.30;;;7.30;99.90;;;;;;4962619;28;20371;-83
2023/09/24 02:23:41;;;;;;;3.53;1.65;;;7.30;99.90;;;;;;4977749;28;20031;-81
2023/09/24 02:26:08;;;;;;;2.42;1.48;;;7.30;99.90;;;;;;4978566;28;20498;-83
2023/09/24 02:28:38;;;;;;;1.40;1.30;;;7.20;99.90;;;;;;4974106;28;20031;-81
2023/09/24 02:31:11;;;;;;;2.92;1.55;;;7.20;99.90;;;;;;4964872;28;20125;-82
2023/09/24 02:33:37;;;;;;;2.47;1.80;;;7.20;99.90;;;;;;4980355;28;20661;-82
2023/09/24 02:36:04;;;;;;;1.63;1.40;;;7.10;99.90;;;;;;4942560;28;20031;-81
2023/09/24 02:38:30;;;;;;;1.52;1.38;;;7.10;99.90;;;;;;4973294;28;20515;-81
2023/09/24 02:40:56;;;;;;;3.75;1.85;;;7.10;99.90;;;;;;4960715;28;20084;-81
2023/09/24 02:43:23;;;;;;;1.88;1.35;;;7.10;99.90;;;;;;4957333;28;20657;-82
2023/09/24 02:45:50;;;;;;;2.33;1.70;;;7.10;99.90;;;;;;4976885;28;20098;-83
2023/09/24 02:48:19;;;;;;;2.20;1.55;;;7.10;99.90;;;;;;4972871;28;20054;-81
2023/09/24 02:50:45;;;;;;;1.92;1.77;;;7.10;99.90;;;;;;4939448;28;20022;-82
2023/09/24 02:53:11;;;;;;;2.92;1.75;;;7.10;99.90;;;;;;4955055;28;20097;-83
2023/09/24 02:55:37;;;;;;;1.80;1.70;;;7.10;99.90;;;;;;4938298;28;20053;-84
2023/09/24 02:58:04;;;;;;;1.80;1.70;;;7.10;99.90;;;;;;4971831;28;20069;-82
2023/09/24 03:00:41;;;;;;;4.22;1.73;;;7.10;99.90;;;;;;4960330;28;20371;-82
2023/09/24 03:03:09;;;;;;;2.95;1.80;;;7.10;99.90;;;;;;4969830;28;20076;-83
2023/09/24 03:05:43;;;;;;;5.95;1.70;;;7.10;99.90;;;;;;4972015;28;20058;-82
2023/09/24 03:08:09;;;;;;;1.95;1.70;;;7.10;99.90;;;;;;4954004;28;20566;-82
2023/09/24 03:10:35;;;;;;;1.50;1.40;;;7.00;99.90;;;;;;4938027;28;20037;-84
2023/09/24 03:13:04;;;;;;;3.25;2.10;;;7.00;99.90;;;;;;4954694;28;20034;-82
2023/09/24 03:15:31;;;;;;;2.67;1.77;;;7.00;99.90;;;;;;4959999;28;20038;-83
2023/09/24 03:17:58;;;;;;;2.60;1.60;;;7.00;99.90;;;;;;4971889;28;20031;-81
2023/09/24 03:20:25;;;;;;;3.28;1.70;;;6.90;99.90;;;;;;4954355;28;20098;-81
2023/09/24 03:22:53;;;;;;;1.75;1.63;;;6.90;99.90;;;;;;4969468;28;20058;-83
2023/09/24 03:25:22;;;;;;;1.55;1.38;;;6.80;99.90;;;;;;4970755;28;20041;-81
2023/09/24 03:27:51;;;;;;;1.95;1.50;;;6.80;99.90;;;;;;4933313;28;20049;-82
2023/09/24 03:30:17;;;;;;;2.50;1.67;;;6.80;99.90;;;;;;4960607;28;20031;-82
2023/09/24 03:32:45;;;;;;;3.15;1.60;;;6.80;99.90;;;;;;4972064;28;20055;-82
2023/09/24 03:35:11;;;;;;;2.47;1.80;;;6.80;99.90;;;;;;4941487;28;20049;-81
2023/09/24 03:37:37;;;;;;;2.80;1.70;;;6.80;99.90;;;;;;4938675;28;20129;-83
2023/09/24 03:40:12;;;;;;;2.65;1.40;;;6.80;99.90;;;;;;4971183;28;20023;-81
2023/09/24 03:42:39;;;;;;;2.45;1.75;;;6.70;99.90;;;;;;4958665;28;20037;-83
2023/09/24 03:45:10;;;;;;;1.60;1.50;;;6.70;99.90;;;;;;4937670;28;20062;-82
2023/09/24 03:47:38;;;;;;;2.58;1.50;;;6.70;99.90;;;;;;4968173;28;20077;-81
2023/09/24 03:50:08;;;;;;;1.73;1.63;;;6.70;99.90;;;;;;4963710;28;20027;-81
2023/09/24 03:52:35;;;;;;;2.20;1.70;;;6.60;99.90;;;;;;4984395;28;20085;-80
2023/09/24 03:55:00;;;;;;;3.78;1.80;;;6.60;99.90;;;;;;4967175;28;20546;-80
2023/09/24 03:57:29;;;;;;;2.40;1.70;;;6.60;99.90;;;;;;4942505;28;20038;-81
2023/09/24 03:59:56;;;;;;;2.08;1.45;;;6.60;99.90;;;;;;4982770;28;20042;-81
2023/09/24 04:02:22;;;;;;;2.50;1.85;;;6.60;99.90;;;;;;4944649;28;20027;-79
2023/09/24 04:04:49;;;;;;;1.65;1.55;;;6.50;99.90;;;;;;4962936;28;20049;-81
2023/09/24 04:07:17;;;;;;;4.30;2.00;;;6.50;99.90;;;;;;4947232;28;20031;-82
2023/09/24 04:09:43;;;;;;;4.55;2.17;;;6.60;99.90;;;;;;4934245;29;20031;-80
2023/09/24 04:12:10;;;;;;;4.00;1.80;;;6.50;99.90;;;;;;4976058;28;20101;-82
2023/09/24 04:14:36;;;;;;;2.25;1.73;;;6.50;99.90;;;;;;4965276;28;20027;-81
2023/09/24 04:17:09;;;;;;;2.28;1.80;;;6.50;99.90;;;;;;4974712;28;20042;-83
2023/09/24 04:19:35;;;;;;;4.05;1.92;;;6.50;99.90;;;;;;4965599;28;20050;-82
2023/09/24 04:22:01;;;;;;;2.60;1.45;;;6.50;99.90;;;;;;4974525;28;20042;-81
2023/09/24 04:24:27;;;;;;;1.75;1.65;;;6.50;99.90;;;;;;4956670;28;20519;-81
2023/09/24 04:26:53;;;;;;;2.40;1.30;;;6.60;99.90;;;;;;4961535;28;20039;-81
2023/09/24 04:29:19;;;;;;;1.77;1.40;;;6.60;99.90;;;;;;4980694;28;20035;-80
2023/09/24 04:31:45;;;;;;;1.80;1.40;;;6.60;99.90;;;;;;4985320;28;20041;-81
2023/09/24 04:34:13;;;;;;;2.85;1.38;;;6.50;99.90;;;;;;4980777;28;20049;-81
2023/09/24 04:36:40;;;;;;;3.30;1.40;;;6.50;99.90;;;;;;4947607;28;20030;-83
2023/09/24 04:39:09;;;;;;;2.25;1.55;;;6.50;99.90;;;;;;4985241;28;20035;-81
2023/09/24 04:41:37;;;;;;;2.22;1.50;;;6.50;99.90;;;;;;4991129;28;20094;-83
2023/09/24 04:44:03;;;;;;;2.67;1.70;;;6.40;99.90;;;;;;4977890;28;20038;-82
2023/09/24 04:46:28;;;;;;;2.35;1.70;;;6.40;99.90;;;;;;4985457;28;20031;-83
2023/09/24 04:48:54;;;;;;;2.10;1.98;;;6.40;99.90;;;;;;4973679;28;20102;-81
2023/09/24 04:51:20;;;;;;;3.00;2.10;;;6.30;99.90;;;;;;4978667;28;20060;-83
2023/09/24 04:53:46;;;;;;;2.38;2.15;;;6.30;99.90;;;;;;4978722;28;20030;-82
2023/09/24 04:56:11;;;;;;;2.35;1.95;;;6.30;99.90;;;;;;4970525;28;20038;-81
2023/09/24 04:58:38;;;;;;;3.15;2.10;;;6.30;99.90;;;;;;4990697;28;20061;-82
2023/09/24 05:01:07;;;;;;;3.05;2.45;;;6.20;99.90;;;;;;4965245;28;20034;-82
2023/09/24 05:03:35;;;;;;;2.10;1.70;;;6.30;99.90;;;;;;4971679;28;20479;-80
2023/09/24 05:06:03;;;;;;;2.10;1.60;;;6.20;99.90;;;;;;4981151;28;20538;-82
2023/09/24 05:08:29;;;;;;;2.72;2.15;;;6.20;99.90;;;;;;4983376;28;20061;-83
2023/09/24 05:10:55;;;;;;;1.90;1.80;;;6.20;99.90;;;;;;4964492;28;20395;-81
2023/09/24 05:13:21;;;;;;;2.47;2.28;;;6.20;99.90;;;;;;4989952;28;20046;-81
2023/09/24 05:15:53;;;;;;;3.17;2.20;;;6.20;99.90;;;;;;4965229;28;20038;-81
2023/09/24 05:18:23;;;;;;;1.83;1.73;;;6.20;99.90;;;;;;4990939;28;20513;-79
2023/09/24 05:20:49;;;;;;;4.30;2.20;;;6.20;99.90;;;;;;4968207;28;20031;-81
2023/09/24 05:23:15;;;;;;;1.77;1.55;;;6.20;99.90;;;;;;4980424;28;20572;-81
2023/09/24 05:25:41;;;;;;;1.63;1.52;;;6.20;99.90;;;;;;4978788;28;20187;-81
2023/09/24 05:28:07;;;;;;;6.07;2.95;;;6.20;99.90;;;;;;4983932;28;20027;-81
2023/09/24 05:30:33;;;;;;;2.10;1.70;;;6.20;99.90;;;;;;4972429;28;20439;-81
2023/09/24 05:32:58;;;;;;;1.85;1.75;;;6.20;99.90;;;;;;4966395;28;20059;-80
2023/09/24 05:35:24;;;;;;;1.98;1.58;;;6.20;99.90;;;;;;4984983;28;20257;-81
2023/09/24 05:37:50;;;;;;;2.10;1.80;;;6.20;99.90;;;;;;4984258;28;20043;-81
2023/09/24 05:40:16;;;;;;;2.30;2.10;;;6.30;99.90;;;;;;4961928;28;20030;-81
2023/09/24 05:42:42;;;;;;;5.72;3.85;;;6.30;99.90;;;;;;4974216;28;20041;-81
2023/09/24 05:45:08;;;;;;;3.15;2.85;;;6.30;99.90;;;;;;4982985;28;20082;-81
2023/09/24 05:47:34;;;;;;;3.20;2.88;;;6.30;99.90;;;;;;4962756;28;20046;-81
2023/09/24 05:50:02;;;;;;;3.67;2.75;;;6.30;99.90;;;;;;4962851;28;20026;-81
2023/09/24 05:52:30;;;;;;;6.45;4.85;;;6.40;99.90;;;;;;4978154;28;20062;-79
2023/09/24 05:54:56;;;;;;;5.15;3.90;;;6.40;99.90;;;;;;4979441;28;20039;-81
2023/09/24 05:57:26;;;;;;;7.57;4.55;;;6.50;99.90;;;;;;4984363;28;20034;-83
2023/09/24 05:59:53;;;;;;;2.85;2.58;;;6.60;99.90;;;;;;4972524;28;20634;-81
2023/09/24 06:02:22;;;;;;;3.05;2.70;;;6.60;99.90;;;;;;4973759;28;20049;-82
2023/09/24 06:04:49;;;;;;;5.28;2.60;;;6.80;99.90;;;;;;4944962;28;20090;-83
2023/09/24 06:07:24;;;;;;;1.50;1.40;;;6.90;99.90;;;;;;4964443;28;20046;-82
2023/09/24 06:09:50;;;;;;;4.93;1.40;;;7.00;99.90;;;;;;4950158;28;20030;-81
2023/09/24 06:12:17;;;;;;;1.42;1.05;;;7.20;99.90;;;;;;4954908;28;20057;-82
2023/09/24 06:14:43;;;;;;;1.40;1.05;;;7.40;99.90;;;;;;4971191;28;20030;-83
2023/09/24 06:17:09;;;;;;;4.30;1.45;;;7.60;99.90;;;;;;4957704;28;20430;-83
2023/09/24 06:19:35;;;;;;;3.33;2.20;;;7.80;99.90;;;;;;4961421;28;20031;-82
2023/09/24 06:22:01;;;;;;;2.13;1.80;;;8.10;99.90;;;;;;4973435;28;20551;-82
2023/09/24 06:24:27;;;;;;;3.53;1.50;;;8.30;99.90;;;;;;4974602;28;20112;-82
2023/09/24 06:26:52;;;;;;;7.70;2.03;;;8.50;99.90;;;;;;4951129;28;20054;-84
2023/09/24 06:29:18;;;;;;;2.75;1.52;;;8.60;99.90;;;;;;4971071;28;20034;-82
2023/09/24 06:31:46;;;;;;;1.95;1.75;;;8.80;99.90;;;;;;4953390;28;20395;-82
2023/09/24 06:34:12;;;;;;;1.95;1.70;;;9.00;99.90;;;;;;4968438;28;20660;-83
2023/09/24 06:36:37;;;;;;;2.60;1.60;;;9.20;99.90;;;;;;4960177;28;20065;-82
2023/09/24 06:39:08;;;;;;;2.22;1.85;;;9.30;99.90;;;;;;4968215;28;20030;-82
2023/09/24 06:41:34;;;;;;;1.92;1.55;;;9.40;99.90;;;;;;4956291;28;21206;-83
2023/09/24 06:44:02;;;;;;;2.35;1.48;;;9.60;99.90;;;;;;4951191;28;20039;-81
2023/09/24 06:46:27;;;;;;;2.75;1.80;;;9.80;99.90;;;;;;4970784;28;20443;-84
2023/09/24 06:48:53;;;;;;;3.30;1.70;;;9.90;99.90;;;;;;4971781;28;20404;-82
2023/09/24 06:51:20;;;;;;;1.80;1.52;;;10.10;99.90;;;;;;4970675;28;20027;-82
2023/09/24 06:53:46;;;;;;;2.22;1.70;;;10.20;99.90;;;;;;4975607;28;20038;-81
2023/09/24 06:56:11;;;;;;;1.92;1.67;;;10.30;99.90;;;;;;4965531;28;20031;-83
2023/09/24 06:58:37;;;;;;;2.38;1.30;;;10.30;99.90;;;;;;4972297;28;20035;-82
2023/09/24 07:01:04;;;;;;;3.25;1.65;;;10.40;99.90;;;;;;4951498;28;20030;-82
2023/09/24 07:03:30;;;;;;;2.30;1.70;;;10.50;99.90;;;;;;4972573;28;20038;-84
2023/09/24 07:05:56;;;;;;;2.88;1.70;;;10.70;99.90;;;;;;4961458;28;20131;-83
2023/09/24 07:08:22;;;;;;;2.95;1.52;;;10.60;99.90;;;;;;4971512;28;20067;-82
2023/09/24 07:11:20;;;;;;;2.35;1.90;;;10.70;99.90;;;;;;4970064;28;20030;-81
2023/09/24 07:13:48;;;;;;;1.95;1.80;;;10.80;99.90;;;;;;4960970;28;20027;-83
2023/09/24 07:16:25;;;;;;;3.40;1.85;;;11.00;99.90;;;;;;4969537;28;20492;-83
2023/09/24 07:18:51;;;;;;;3.08;1.60;;;11.00;99.90;;;;;;4966180;28;20102;-84
2023/09/24 07:21:19;;;;;;;3.00;1.45;;;11.10;99.90;;;;;;4971209;28;20035;-83
2023/09/24 07:23:47;;;;;;;1.98;1.83;;;11.10;99.90;;;;;;4957629;28;20042;-84
2023/09/24 07:26:13;;;;;;;4.40;1.77;;;11.20;99.90;;;;;;4971499;28;20046;-83
2023/09/24 07:28:39;;;;;;;1.92;1.55;;;11.20;99.90;;;;;;4976000;28;20586;-82
2023/09/24 07:31:22;;;;;;;1.60;1.50;;;11.30;99.90;;;;;;4970417;28;20427;-82
2023/09/24 07:33:59;;;;;;;3.72;2.10;;;11.40;99.90;;;;;;4928614;28;20078;-82
2023/09/24 07:36:26;;;;;;;1.83;1.73;;;11.50;99.90;;;;;;4972999;28;20078;-81
2023/09/24 07:38:51;;;;;;;2.03;1.83;;;11.50;99.90;;;;;;4981729;28;20046;-81
2023/09/24 07:41:21;;;;;;;4.35;2.65;;;11.70;99.90;;;;;;4975060;28;20526;-81
2023/09/24 07:43:47;;;;;;;2.60;2.05;;;11.80;99.90;;;;;;4975146;28;20031;-80
2023/09/24 07:46:14;;;;;;;3.15;2.00;;;12.00;99.90;;;;;;4975525;28;20027;-82
2023/09/24 07:48:49;;;;;;;4.90;1.98;;;12.10;99.90;;;;;;4971286;28;20475;-82
2023/09/24 07:51:19;;;;;;;1.40;1.30;;;12.30;99.90;;;;;;4973086;28;20041;-82
2023/09/24 07:53:50;;;;;;;2.20;2.00;;;12.40;99.90;;;;;;4964476;28;20159;-83
2023/09/24 07:56:15;;;;;;;3.00;1.90;;;12.50;99.90;;;;;;4960161;28;20094;-83
2023/09/24 07:58:42;;;;;;;3.53;1.77;;;12.70;99.90;;;;;;4983832;28;20035;-83
2023/09/24 08:01:13;;;;;;;3.55;1.52;;;12.80;99.90;;;;;;4977450;28;20038;-83
2023/09/24 08:03:40;;;;;;;2.60;1.73;;;12.90;99.90;;;;;;4983995;28;20411;-84
2023/09/24 08:06:06;;;;;;;1.75;1.50;;;13.00;99.90;;;;;;4980205;28;20058;-81
2023/09/24 08:08:36;;;;;;;1.83;1.40;;;13.10;99.90;;;;;;4978176;28;20420;-85
2023/09/24 08:11:02;;;;;;;3.08;1.60;;;13.10;99.90;;;;;;4977719;28;20061;-83
2023/09/24 08:13:29;;;;;;;1.90;1.50;;;13.10;99.90;;;;;;4971514;28;20047;-83
2023/09/24 08:15:56;;;;;;;1.55;1.45;;;13.20;99.90;;;;;;4987203;28;20031;-82
2023/09/24 08:18:23;;;;;;;2.13;1.58;;;13.20;99.90;;;;;;4981410;28;20468;-83
2023/09/24 08:20:49;;;;;;;2.95;1.75;;;13.30;99.90;;;;;;4971487;28;20026;-82
2023/09/24 08:23:15;;;;;;;1.90;1.40;;;13.30;99.90;;;;;;4960062;28;20042;-81
2023/09/24 08:25:41;;;;;;;5.18;1.67;;;13.40;99.90;;;;;;4994294;28;20030;-82
2023/09/24 08:28:08;;;;;;;4.60;1.88;;;13.40;99.90;;;;;;4987227;28;20602;-81
2023/09/24 08:30:34;;;;;;;3.22;1.60;;;13.50;99.90;;;;;;4986324;28;20106;-82
2023/09/24 08:33:00;;;;;;;3.80;1.92;;;13.50;99.90;;;;;;4982422;28;20031;-82
2023/09/24 08:35:26;;;;;;;4.72;1.85;;;13.60;99.90;;;;;;4980369;28;20035;-81
2023/09/24 08:37:52;;;;;;;2.30;1.73;;;13.60;99.90;;;;;;4976510;28;20025;-83
2023/09/24 08:40:18;;;;;;;4.20;1.70;;;13.60;99.90;;;;;;4984197;28;20177;-81
2023/09/24 08:42:49;;;;;;;2.85;1.50;;;13.60;99.90;;;;;;4959172;28;20068;-84
2023/09/24 08:45:19;;;;;;;2.92;1.70;;;13.60;99.90;;;;;;4972027;28;20576;-83
2023/09/24 08:47:48;;;;;;;1.60;1.27;;;13.60;99.90;;;;;;4954296;28;20076;-83
2023/09/24 08:50:14;;;;;;;2.97;1.92;;;13.60;99.90;;;;;;4974548;28;20080;-81
2023/09/24 08:52:42;;;;;;;3.22;1.50;;;13.60;99.90;;;;;;4968119;28;20035;-83
2023/09/24 08:55:09;;;;;;;1.95;1.45;;;13.70;99.90;;;;;;4979950;28;20137;-79
2023/09/24 08:57:39;;;;;;;4.20;1.58;;;13.70;99.90;;;;;;4962321;28;20039;-80
2023/09/24 09:00:09;;;;;;;2.50;1.50;;;13.70;99.90;;;;;;4973589;28;20042;-79
2023/09/24 09:02:35;;;;;;;2.85;1.33;;;13.70;99.90;;;;;;4971758;28;20058;-82
2023/09/24 09:05:07;;;;;;;2.33;1.30;;;13.60;99.90;;;;;;4947928;28;20122;-83
2023/09/24 09:07:34;;;;;;;4.05;2.30;;;13.60;99.90;;;;;;4952058;28;20553;-82
2023/09/24 09:10:02;;;;;;;1.95;1.55;;;13.60;99.90;;;;;;4966347;28;20488;-79
2023/09/24 09:12:28;;;;;;;3.60;1.50;;;13.60;99.90;;;;;;4966122;28;20035;-81
2023/09/24 09:14:55;;;;;;;2.55;1.48;;;13.70;99.90;;;;;;4970213;28;20120;-82
2023/09/24 09:17:21;;;;;;;2.60;1.15;;;13.70;99.90;;;;;;4974640;28;20030;-80
2023/09/24 09:19:54;;;;;;;3.30;1.33;;;13.80;99.90;;;;;;4986652;28;20023;-80
2023/09/24 09:22:27;;;;;;;3.70;1.73;;;13.80;99.90;;;;;;4973378;28;20708;-79
2023/09/24 09:25:09;;;;;;;1.98;1.30;;;13.90;99.90;;;;;;4974938;28;20118;-80
2023/09/24 09:27:42;;;;;;;1.73;1.17;;;14.00;99.90;;;;;;4971787;28;20046;-81
2023/09/24 09:30:16;;;;;;;4.05;1.65;;;14.00;99.90;;;;;;4977588;28;20031;-79
2023/09/24 09:33:01;;;;;;;1.90;1.20;;;14.10;99.90;;;;;;4969952;28;20041;-80
2023/09/24 09:35:32;;;;;;;2.20;1.67;;;14.20;99.90;;;;;;4954307;28;20032;-80
2023/09/24 09:38:11;;;;;;;4.10;1.95;;;14.30;99.90;;;;;;4973753;28;20030;-81
2023/09/24 09:40:37;;;;;;;4.20;1.90;;;14.30;99.90;;;;;;4973862;28;20065;-80
2023/09/24 09:43:05;;;;;;;3.45;1.40;;;14.30;99.90;;;;;;4968957;28;20126;-81
2023/09/24 09:45:32;;;;;;;2.28;1.50;;;14.40;99.90;;;;;;4957169;28;20035;-79
2023/09/24 09:48:04;;;;;;;3.00;1.73;;;14.50;99.90;;;;;;4974412;28;20037;-79
2023/09/24 09:50:41;;;;;;;2.53;1.55;;;14.50;99.90;;;;;;4957464;28;20094;-81
2023/09/24 09:53:10;;;;;;;4.15;1.45;;;14.50;99.90;;;;;;4970766;28;20723;-80
2023/09/24 09:55:43;;;;;;;2.70;1.60;;;14.50;99.90;;;;;;4967753;28;20066;-82
2023/09/24 09:58:14;;;;;;;2.53;1.20;;;14.70;99.90;;;;;;4958360;28;20023;-81
2023/09/24 10:00:40;;;;;;;1.80;1.45;;;14.70;99.90;;;;;;4969221;28;20022;-80
2023/09/24 10:03:06;;;;;;;2.47;1.30;;;14.80;99.90;;;;;;4970159;28;20559;-79
2023/09/24 10:05:33;;;;;;;1.55;1.30;;;14.80;99.90;;;;;;4955315;28;20094;-80
2023/09/24 10:07:58;;;;;;;2.90;1.55;;;14.80;99.90;;;;;;4976680;28;20030;-80
2023/09/24 10:10:30;;;;;;;2.10;1.30;;;14.80;99.90;;;;;;4979649;28;20090;-79
2023/09/24 10:12:57;;;;;;;1.92;1.10;;;14.80;99.90;;;;;;4983890;28;20031;-79
2023/09/24 10:15:25;;;;;;;3.53;1.30;;;14.90;99.90;;;;;;4969020;28;20027;-79
2023/09/24 10:18:09;;;;;;;2.65;1.17;;;14.90;99.90;;;;;;4978711;28;20031;-79
2023/09/24 10:20:50;;;;;;;1.30;1.20;;;14.90;99.90;;;;;;4974709;28;20023;-79
2023/09/24 10:23:32;;;;;;;4.45;1.13;;;14.90;99.90;;;;;;4980190;28;20459;-79
2023/09/24 10:26:00;;;;;;;1.85;1.00;;;15.00;99.90;;;;;;4961984;28;20046;-79
2023/09/24 10:28:51;;;;;;;3.15;1.30;;;15.00;99.90;;;;;;4987545;28;20039;-79
2023/09/24 10:31:21;;;;;;;1.27;0.88;;;15.10;99.90;;;;;;4977452;28;20727;-79
2023/09/24 10:33:53;;;;;;;2.40;0.70;;;15.20;99.90;;;;;;4971567;28;20094;-78
2023/09/24 10:36:26;;;;;;;0.82;0.60;;;15.40;99.90;;;;;;4968001;28;20118;-79
2023/09/24 10:39:14;;;;;;;2.53;1.00;;;15.40;99.90;;;;;;4954154;28;20038;-79
2023/09/24 10:42:18;;;;;;;0.77;0.60;;;15.50;99.90;;;;;;4979471;28;20422;-78
2023/09/24 10:44:44;;;;;;;0.77;0.75;;;15.60;99.90;;;;;;4976375;28;20039;-79
2023/09/24 10:47:27;;;;;;;1.33;1.10;;;15.60;99.90;;;;;;4972889;28;20027;-79
2023/09/24 10:50:04;;;;;;;2.03;0.70;;;15.60;99.90;;;;;;4953322;28;20110;-79
2023/09/24 10:52:50;;;;;;;2.17;0.80;;;15.60;99.90;;;;;;4971831;28;20030;-79
2023/09/24 10:55:17;;;;;;;0.98;0.60;;;15.70;99.90;;;;;;4973473;28;20035;-79
2023/09/24 10:57:45;;;;;;;2.17;0.90;;;15.80;99.90;;;;;;4972234;28;20069;-80
2023/09/24 11:00:18;;;;;;;3.30;2.03;;;15.90;99.90;;;;;;4970804;28;20031;-79
2023/09/24 11:02:44;;;;;;;1.73;0.60;;;15.90;99.90;;;;;;4959650;28;20097;-80
2023/09/24 11:05:10;;;;;;;2.70;1.35;;;16.00;99.90;;;;;;4950210;28;20039;-80
2023/09/24 11:07:36;;;;;;;0.68;0.60;;;16.00;99.90;;;;;;4964249;28;20034;-79
2023/09/24 11:10:03;;;;;;;2.42;0.75;;;16.20;99.90;;;;;;4972001;28;20102;-79
2023/09/24 11:12:28;;;;;;;1.00;0.60;;;16.30;99.90;;;;;;4953542;28;20058;-81
2023/09/24 11:14:55;;;;;;;1.25;0.68;;;16.20;99.90;;;;;;4963279;28;20061;-79
2023/09/24 11:17:22;;;;;;;0.98;0.63;;;16.20;99.90;;;;;;4965245;28;20039;-80
2023/09/24 11:19:49;;;;;;;0.68;0.68;;;16.30;99.90;;;;;;4957118;28;20058;-79
2023/09/24 11:22:23;;;;;;;1.88;0.90;;;16.20;99.90;;;;;;4974052;28;20038;-80
2023/09/24 11:25:12;;;;;;;1.10;0.85;;;16.20;99.90;;;;;;4966230;28;20037;-80
2023/09/24 11:27:48;;;;;;;1.35;0.70;;;16.10;99.90;;;;;;4943420;28;20113;-81
2023/09/24 11:30:15;;;;;;;1.67;1.13;;;16.00;99.90;;;;;;4967699;28;20532;-79
2023/09/24 11:32:42;;;;;;;1.35;0.82;;;15.90;99.90;;;;;;4968384;28;20042;-80
2023/09/24 11:35:17;;;;;;;2.85;1.00;;;15.80;99.90;;;;;;4963877;28;20031;-79
2023/09/24 11:37:53;;;;;;;1.38;0.75;;;15.90;99.90;;;;;;4967568;28;20055;-79
2023/09/24 11:40:27;;;;;;;1.23;0.60;;;16.20;99.90;;;;;;4965526;28;20035;-80
2023/09/24 11:42:55;;;;;;;1.30;0.90;;;16.30;99.90;;;;;;4963004;28;20037;-80
2023/09/24 11:45:50;;;;;;;1.17;1.08;;;16.50;99.90;;;;;;4970999;28;20065;-80
2023/09/24 11:48:27;;;;;;;0.80;0.80;;;16.70;99.90;;;;;;4966170;28;20396;-79
2023/09/24 11:50:54;;;;;;;2.83;0.95;;;16.80;99.90;;;;;;4966898;28;20026;-81
2023/09/24 11:53:22;;;;;;;1.63;1.02;;;16.90;99.90;;;;;;4970097;28;20015;-79
2023/09/24 11:55:49;;;;;;;2.65;1.10;;;16.90;99.90;;;;;;4971350;28;20030;-79
2023/09/24 11:58:20;;;;;;;1.08;0.70;;;17.10;99.90;;;;;;4951095;28;20023;-81
2023/09/24 12:00:46;;;;;;;1.08;0.63;;;17.40;99.90;;;;;;4970748;28;20034;-82
2023/09/24 12:03:13;;;;;;;2.80;0.80;;;17.60;99.90;;;;;;4950592;28;20031;-81
2023/09/24 12:05:40;;;;;;;0.50;0.50;;;17.80;99.90;;;;;;4979054;28;20061;-80
2023/09/24 12:08:07;;;;;;;0.77;0.73;;;17.90;99.90;;;;;;4974951;28;20034;-80
2023/09/24 12:10:34;;;;;;;1.85;0.70;;;18.00;99.90;;;;;;4976858;28;20029;-80
2023/09/24 12:13:04;;;;;;;0.95;0.70;;;18.10;99.90;;;;;;4959127;28;20038;-80
2023/09/24 12:15:31;;;;;;;1.48;0.82;;;18.20;99.90;;;;;;4977520;28;20523;-79
2023/09/24 12:17:58;;;;;;;1.13;1.02;;;18.30;99.90;;;;;;4963263;28;20391;-81
2023/09/24 12:20:24;;;;;;;1.30;0.82;;;18.40;99.90;;;;;;4964803;28;20684;-81
2023/09/24 12:22:49;;;;;;;2.03;1.70;;;18.50;99.90;;;;;;4972790;28;20114;-79
2023/09/24 12:25:15;;;;;;;3.55;2.95;;;18.60;99.90;;;;;;4966397;28;20039;-80
2023/09/24 12:27:41;;;;;;;1.25;0.95;;;18.60;99.90;;;;;;4966762;28;20050;-80
2023/09/24 12:30:11;;;;;;;1.02;0.82;;;18.60;99.90;;;;;;4966493;28;20039;-80
2023/09/24 12:32:37;;;;;;;0.60;0.60;;;18.70;99.90;;;;;;4971005;28;20031;-80
2023/09/24 12:35:04;;;;;;;0.70;0.57;;;18.90;99.90;;;;;;4974378;28;20634;-80
2023/09/24 12:37:31;;;;;;;2.72;0.70;;;18.90;99.90;;;;;;4979196;28;20034;-80
2023/09/24 12:40:15;;;;;;;0.60;0.57;;;18.90;99.90;;;;;;4969510;28;20201;-81
2023/09/24 12:42:42;;;;;;;2.22;0.68;;;18.90;99.90;;;;;;4967670;28;20054;-82
2023/09/24 12:45:09;;;;;;;0.50;0.50;;;18.80;99.90;;;;;;4965686;28;20046;-82
2023/09/24 12:47:36;;;;;;;1.65;0.60;;;18.60;99.90;;;;;;4974860;28;20074;-83
2023/09/24 12:50:04;;;;;;;0.60;0.52;;;18.40;99.90;;;;;;4967529;28;20103;-81
2023/09/24 12:52:38;;;;;;;0.98;0.60;;;18.20;99.90;;;;;;4959167;28;20030;-82
2023/09/24 12:55:06;;;;;;;0.55;0.55;;;18.00;99.90;;;;;;4963747;28;20245;-82
2023/09/24 12:57:33;;;;;;;1.67;0.70;;;17.80;99.90;;;;;;4970770;28;20031;-80
2023/09/24 12:59:59;;;;;;;0.70;0.50;;;17.80;99.90;;;;;;4980038;28;20113;-83